createdAt,value
2023-04-11T00:02:18.968Z,27.90
2023-04-11T00:07:23.645Z,28.00
2023-04-11T00:12:26.828Z,28.20
2023-04-11T00:17:31.430Z,28.10
2023-04-11T00:22:36.294Z,28.10
2023-04-11T00:27:39.620Z,28.40
2023-04-11T00:32:42.755Z,28.30
2023-04-11T00:37:49.487Z,28.30
2023-04-11T00:42:52.609Z,28.50
2023-04-11T00:47:55.921Z,28.50
2023-04-11T00:53:00.586Z,28.60
2023-04-11T00:58:04.282Z,28.80
2023-04-11T01:03:08.477Z,28.70
2023-04-11T01:08:14.892Z,28.80
2023-04-11T01:13:18.466Z,29.00
2023-04-11T01:18:21.599Z,28.80
2023-04-11T01:23:26.557Z,28.80
2023-04-11T01:28:29.686Z,29.10
2023-04-11T01:33:32.815Z,28.80
2023-04-11T01:38:37.368Z,28.90
2023-04-11T01:43:40.958Z,29.10
2023-04-11T01:48:45.613Z,29.00
2023-04-11T01:53:50.357Z,29.10
2023-04-11T01:58:53.688Z,29.30
2023-04-11T02:03:57.100Z,29.10
2023-04-11T02:09:01.721Z,29.20
2023-04-11T02:14:06.430Z,29.30
2023-04-11T02:19:09.553Z,29.30
2023-04-11T02:24:14.144Z,29.50
2023-04-11T02:29:17.233Z,29.80
2023-04-11T02:34:20.375Z,29.60
2023-04-11T02:39:24.947Z,29.70
2023-04-11T02:44:29.427Z,30.10
2023-04-11T02:49:32.607Z,30.10
2023-04-11T02:54:37.277Z,30.40
2023-04-11T02:59:40.385Z,30.40
2023-04-11T03:04:43.507Z,30.40
2023-04-11T03:09:48.095Z,30.40
2023-04-11T03:14:51.238Z,30.60
2023-04-11T03:19:54.381Z,30.40
2023-04-11T03:25:00.048Z,30.50
2023-04-11T03:30:03.769Z,31.20
2023-04-11T03:35:07.428Z,30.80
2023-04-11T03:40:12.755Z,31.30
2023-04-11T03:45:15.995Z,31.80
2023-04-11T03:50:19.251Z,31.60
2023-04-11T03:55:24.025Z,31.70
2023-04-11T04:00:27.784Z,32.40
2023-04-11T04:05:30.895Z,32.00
2023-04-11T04:10:35.569Z,32.00
2023-04-11T04:15:38.688Z,32.60
2023-04-11T04:20:43.033Z,32.20
2023-04-11T04:25:49.354Z,32.80
2023-04-11T04:30:54.462Z,33.40
2023-04-11T04:35:59.908Z,32.50
2023-04-11T04:41:06.150Z,32.60
2023-04-11T04:46:09.952Z,33.20
2023-04-11T04:51:13.080Z,33.00
2023-04-11T04:56:17.681Z,32.90
2023-04-11T05:01:21.332Z,33.40
2023-04-11T05:06:24.431Z,33.00
2023-04-11T05:11:30.100Z,33.00
2023-04-11T05:16:33.363Z,33.70
2023-04-11T05:21:37.690Z,33.40
2023-04-11T05:26:42.441Z,33.20
2023-04-11T05:31:45.532Z,33.90
2023-04-11T05:36:48.648Z,33.10
2023-04-11T05:41:53.442Z,33.10
2023-04-11T05:46:56.520Z,33.70
2023-04-11T05:51:59.666Z,33.50
2023-04-11T05:57:04.518Z,33.60
2023-04-11T06:02:07.845Z,34.10
2023-04-11T06:07:11.179Z,33.90
2023-04-11T06:12:15.751Z,34.10
2023-04-11T06:17:18.856Z,34.70
2023-04-11T06:22:26.551Z,34.40
2023-04-11T06:27:32.099Z,34.50
2023-04-11T06:32:35.497Z,35.90
2023-04-11T06:37:38.681Z,34.70
2023-04-11T06:42:43.599Z,35.00
2023-04-11T06:47:46.679Z,35.50
2023-04-11T06:52:49.764Z,35.30
2023-04-11T06:57:54.224Z,35.60
2023-04-11T07:02:57.525Z,36.50
2023-04-11T07:08:01.110Z,35.90
2023-04-11T07:13:05.590Z,35.90
2023-04-11T07:18:08.834Z,36.40
2023-04-11T07:23:12.139Z,35.70
2023-04-11T07:28:16.721Z,35.90
2023-04-11T07:33:19.814Z,36.40
2023-04-11T07:38:29.491Z,35.80
2023-04-11T07:43:34.285Z,36.40
2023-04-11T07:48:37.360Z,36.60
2023-04-11T07:53:40.409Z,35.80
2023-04-11T07:58:45.224Z,36.00
2023-04-11T08:03:48.599Z,36.10
2023-04-11T08:08:52.453Z,35.60
2023-04-11T08:13:57.250Z,35.50
2023-04-11T08:19:00.466Z,35.60
2023-04-11T08:24:03.550Z,35.70
2023-04-11T08:29:11.434Z,36.00
2023-04-11T08:34:14.674Z,36.30
2023-04-11T08:39:17.873Z,36.20
2023-04-11T08:44:22.435Z,36.30
2023-04-11T08:49:25.629Z,36.80
2023-04-11T08:54:28.770Z,36.50
2023-04-11T08:59:34.821Z,36.60
2023-04-11T09:04:41.724Z,37.30
2023-04-11T09:09:44.901Z,37.20
2023-04-11T09:14:49.347Z,36.80
2023-04-11T09:19:52.617Z,37.10
2023-04-11T09:25:03.606Z,37.10
2023-04-11T09:30:22.534Z,38.00
2023-04-11T09:35:28.668Z,37.90
2023-04-11T09:40:32.077Z,36.90
2023-04-11T09:45:47.650Z,36.50
2023-04-11T09:50:58.877Z,36.40
2023-04-11T09:56:02.791Z,36.30
2023-04-11T10:01:09.613Z,36.20
2023-04-11T10:06:20.839Z,36.10
2023-04-11T10:11:24.759Z,35.70
2023-04-11T10:16:32.447Z,36.00
2023-04-11T10:21:42.766Z,35.80
2023-04-11T10:26:50.858Z,36.00
2023-04-11T10:32:13.362Z,35.40
2023-04-11T10:37:16.545Z,35.20
2023-04-11T10:42:29.201Z,34.60
2023-04-11T10:47:33.675Z,34.20
2023-04-11T10:52:39.027Z,34.50
2023-04-11T10:58:07.255Z,34.80
2023-04-11T11:03:16.988Z,34.10
2023-04-11T11:08:30.547Z,33.70
2023-04-11T11:13:40.942Z,33.40
2023-04-11T11:18:48.796Z,33.60
2023-04-11T11:23:59.301Z,33.70
2023-04-11T11:29:03.563Z,33.50
2023-04-11T11:34:22.842Z,33.50
2023-04-11T11:39:27.672Z,32.90
2023-04-11T11:44:32.243Z,32.90
2023-04-11T11:49:47.237Z,32.80
2023-04-11T11:54:50.384Z,32.50
2023-04-11T11:59:56.735Z,31.60
2023-04-11T12:05:04.221Z,32.50
2023-04-11T12:10:09.435Z,32.40
2023-04-11T12:15:14.146Z,31.80
2023-04-11T12:20:23.323Z,32.00
2023-04-11T12:25:26.700Z,31.50
2023-04-11T12:30:30.217Z,31.30
2023-04-11T12:35:35.007Z,31.30
2023-04-11T12:40:38.086Z,30.50
2023-04-11T12:45:41.286Z,30.00
2023-04-11T12:50:45.745Z,30.60
2023-04-11T12:55:48.967Z,30.80
2023-04-11T13:00:52.213Z,30.80
2023-04-11T13:05:56.718Z,30.70
2023-04-11T13:10:59.823Z,30.00
2023-04-11T13:16:02.984Z,29.80
2023-04-11T13:21:08.158Z,29.90
2023-04-11T13:26:11.233Z,29.30
2023-04-11T13:31:14.619Z,29.40
2023-04-11T13:36:19.243Z,28.60
2023-04-11T13:41:22.762Z,28.90
2023-04-11T13:46:26.117Z,28.50
2023-04-11T13:51:31.719Z,27.90
2023-04-11T13:56:35.874Z,26.90
2023-04-11T14:01:39.632Z,26.90
2023-04-11T14:06:44.338Z,27.10
2023-04-11T14:11:47.426Z,26.60
2023-04-11T14:16:50.663Z,26.70
2023-04-11T14:21:55.145Z,27.60
2023-04-11T14:26:58.240Z,26.30
2023-04-11T14:32:02.068Z,26.80
2023-04-11T14:37:06.675Z,27.10
2023-04-11T14:42:10.149Z,26.50
2023-04-11T14:47:13.227Z,26.90
2023-04-11T14:52:17.660Z,26.60
2023-04-11T14:57:23.210Z,26.40
2023-04-11T15:02:27.395Z,26.10
2023-04-11T15:07:33.019Z,26.20
2023-04-11T15:12:36.117Z,26.20
2023-04-11T15:17:42.008Z,26.20
2023-04-11T15:22:47.318Z,25.50
2023-04-11T15:27:51.970Z,25.60
2023-04-11T15:32:55.121Z,25.90
2023-04-11T15:38:00.512Z,25.50
2023-04-11T15:43:03.794Z,25.40
2023-04-11T15:48:07.248Z,25.80
2023-04-11T15:53:12.741Z,26.10
2023-04-11T15:58:16.292Z,26.40
2023-04-11T16:03:19.498Z,26.80
2023-04-11T16:08:24.142Z,27.10
2023-04-11T16:13:27.210Z,27.20
2023-04-11T16:18:30.361Z,27.50
2023-04-11T16:23:34.837Z,27.70
2023-04-11T16:28:37.936Z,27.60
2023-04-11T16:33:41.002Z,27.60
2023-04-11T16:38:45.594Z,27.60
2023-04-11T16:43:48.712Z,27.60
2023-04-11T16:48:51.807Z,27.70
2023-04-11T16:53:56.994Z,28.00
2023-04-11T16:59:00.385Z,27.90
2023-04-11T17:04:03.605Z,27.90
2023-04-11T17:09:09.475Z,28.00
2023-04-11T17:14:12.615Z,27.90
2023-04-11T17:19:15.745Z,27.90
2023-04-11T17:24:20.204Z,28.00
2023-04-11T17:29:23.273Z,28.20
2023-04-11T17:34:26.526Z,28.10
2023-04-11T17:39:30.991Z,28.10
2023-04-11T17:44:34.154Z,28.20
2023-04-11T17:49:37.219Z,28.10
2023-04-11T17:54:41.647Z,28.10
2023-04-11T17:59:45.879Z,28.10
2023-04-11T18:04:49.284Z,28.00
2023-04-11T18:09:54.044Z,28.00
2023-04-11T18:14:57.275Z,28.20
2023-04-11T18:20:00.499Z,28.20
2023-04-11T18:25:05.812Z,28.20
2023-04-11T18:30:12.196Z,28.40
2023-04-11T18:35:15.714Z,28.50
2023-04-11T18:40:20.164Z,28.50
2023-04-11T18:45:23.317Z,28.50
2023-04-11T18:50:27.712Z,28.40
2023-04-11T18:55:32.204Z,28.40
2023-04-11T19:00:35.538Z,28.50
2023-04-11T19:05:39.028Z,28.50
2023-04-11T19:10:43.552Z,28.20
2023-04-11T19:15:47.071Z,27.90
2023-04-11T19:20:52.128Z,27.80
2023-04-11T19:25:56.695Z,27.70
2023-04-11T19:30:59.862Z,27.80
2023-04-11T19:36:03.096Z,28.00
2023-04-11T19:41:15.734Z,28.10
2023-04-11T19:46:19.100Z,28.60
2023-04-11T19:51:22.827Z,28.30
2023-04-11T19:56:27.349Z,27.90
2023-04-11T20:01:32.343Z,27.80
2023-04-11T20:06:35.778Z,27.90
2023-04-11T20:11:40.405Z,28.20
2023-04-11T20:16:43.549Z,28.50
2023-04-11T20:21:46.734Z,28.70
2023-04-11T20:26:51.251Z,28.80
2023-04-11T20:31:54.344Z,28.90
2023-04-11T20:37:00.775Z,28.80
2023-04-11T20:42:05.486Z,28.80
2023-04-11T20:47:09.177Z,28.80
2023-04-11T20:52:12.470Z,28.60
2023-04-11T20:57:16.918Z,28.60
2023-04-11T21:02:20.187Z,28.20
2023-04-11T21:07:23.843Z,28.10
2023-04-11T21:12:28.373Z,28.30
2023-04-11T21:17:34.642Z,28.60
2023-04-11T21:22:37.802Z,28.80
2023-04-11T21:27:42.338Z,28.60
2023-04-11T21:32:45.548Z,28.40
2023-04-11T21:37:49.302Z,28.30
2023-04-11T21:42:55.518Z,28.50
2023-04-11T21:47:58.666Z,28.70
2023-04-11T21:53:01.765Z,28.60
2023-04-11T21:58:08.189Z,28.50
2023-04-11T22:03:19.879Z,28.60
2023-04-11T22:08:23.374Z,28.50
2023-04-11T22:13:27.813Z,28.50
2023-04-11T22:18:30.887Z,28.70
2023-04-11T22:23:34.401Z,28.70
2023-04-11T22:28:38.867Z,28.80
2023-04-11T22:33:41.978Z,29.10
2023-04-11T22:38:45.605Z,29.00
2023-04-11T22:43:50.046Z,29.00
2023-04-11T22:48:53.926Z,29.20
2023-04-11T22:53:57.214Z,29.20
2023-04-11T22:59:01.816Z,30.00
2023-04-11T23:04:04.940Z,30.20
2023-04-11T23:09:08.072Z,30.10
2023-04-11T23:14:14.461Z,30.10
2023-04-11T23:19:18.874Z,30.60
2023-04-11T23:24:22.088Z,30.40
2023-04-11T23:29:27.588Z,30.50
2023-04-11T23:34:30.701Z,30.90
2023-04-11T23:39:33.819Z,30.60
2023-04-11T23:44:38.252Z,30.80
2023-04-11T23:49:41.429Z,31.00
2023-04-11T23:54:45.807Z,30.80
2023-04-11T23:59:50.292Z,31.00
